sensor_id;sensor_type;location;lat;lon;timestamp;P1;durP1;ratioP1;P2;durP2;ratioP2
37609;SDS011;23457;51.966;8.230;2023-08-08T00:02:26;14.82;;;7.53;;
37609;SDS011;23457;51.966;8.230;2023-08-08T00:04:53;13.82;;;6.68;;
37609;SDS011;23457;51.966;8.230;2023-08-08T00:07:20;12.98;;;6.70;;
37609;SDS011;23457;51.966;8.230;2023-08-08T00:09:47;13.05;;;6.65;;
37609;SDS011;23457;51.966;8.230;2023-08-08T00:12:13;12.68;;;6.57;;
37609;SDS011;23457;51.966;8.230;2023-08-08T00:14:40;13.40;;;6.80;;
37609;SDS011;23457;51.966;8.230;2023-08-08T00:17:07;10.27;;;6.22;;
37609;SDS011;23457;51.966;8.230;2023-08-08T00:19:33;11.98;;;5.93;;
37609;SDS011;23457;51.966;8.230;2023-08-08T00:22:00;11.65;;;6.45;;
37609;SDS011;23457;51.966;8.230;2023-08-08T00:24:27;11.88;;;5.35;;
37609;SDS011;23457;51.966;8.230;2023-08-08T00:26:54;9.52;;;5.40;;
37609;SDS011;23457;51.966;8.230;2023-08-08T00:29:20;11.27;;;5.05;;
37609;SDS011;23457;51.966;8.230;2023-08-08T00:31:47;7.68;;;4.32;;
37609;SDS011;23457;51.966;8.230;2023-08-08T00:34:14;9.90;;;4.47;;
37609;SDS011;23457;51.966;8.230;2023-08-08T00:36:40;8.23;;;4.60;;
37609;SDS011;23457;51.966;8.230;2023-08-08T00:39:07;7.60;;;4.28;;
37609;SDS011;23457;51.966;8.230;2023-08-08T00:41:34;6.50;;;4.00;;
37609;SDS011;23457;51.966;8.230;2023-08-08T00:44:01;10.32;;;3.80;;
37609;SDS011;23457;51.966;8.230;2023-08-08T00:46:28;6.63;;;3.38;;
37609;SDS011;23457;51.966;8.230;2023-08-08T00:48:55;10.32;;;3.90;;
37609;SDS011;23457;51.966;8.230;2023-08-08T00:51:22;6.70;;;4.13;;
37609;SDS011;23457;51.966;8.230;2023-08-08T00:53:50;5.85;;;3.40;;
37609;SDS011;23457;51.966;8.230;2023-08-08T00:56:17;8.57;;;4.65;;
37609;SDS011;23457;51.966;8.230;2023-08-08T00:58:44;5.50;;;3.50;;
37609;SDS011;23457;51.966;8.230;2023-08-08T01:01:12;5.28;;;3.38;;
37609;SDS011;23457;51.966;8.230;2023-08-08T01:03:39;7.13;;;3.40;;
37609;SDS011;23457;51.966;8.230;2023-08-08T01:06:14;6.68;;;3.55;;
37609;SDS011;23457;51.966;8.230;2023-08-08T01:09:01;14.45;;;3.90;;
37609;SDS011;23457;51.966;8.230;2023-08-08T01:11:35;7.30;;;3.58;;
37609;SDS011;23457;51.966;8.230;2023-08-08T01:14:03;5.75;;;3.47;;
37609;SDS011;23457;51.966;8.230;2023-08-08T01:16:32;12.68;;;3.85;;
37609;SDS011;23457;51.966;8.230;2023-08-08T01:18:59;6.20;;;3.60;;
37609;SDS011;23457;51.966;8.230;2023-08-08T01:21:27;5.78;;;3.53;;
37609;SDS011;23457;51.966;8.230;2023-08-08T01:24:00;7.85;;;3.80;;
37609;SDS011;23457;51.966;8.230;2023-08-08T01:26:38;6.68;;;3.35;;
37609;SDS011;23457;51.966;8.230;2023-08-08T01:29:04;8.30;;;3.05;;
37609;SDS011;23457;51.966;8.230;2023-08-08T01:31:31;6.07;;;2.65;;
37609;SDS011;23457;51.966;8.230;2023-08-08T01:33:58;4.60;;;3.35;;
37609;SDS011;23457;51.966;8.230;2023-08-08T01:36:27;5.05;;;3.00;;
37609;SDS011;23457;51.966;8.230;2023-08-08T01:38:59;4.25;;;3.00;;
37609;SDS011;23457;51.966;8.230;2023-08-08T01:41:34;6.60;;;3.42;;
37609;SDS011;23457;51.966;8.230;2023-08-08T01:44:04;4.30;;;3.03;;
37609;SDS011;23457;51.966;8.230;2023-08-08T01:46:32;5.63;;;2.92;;
37609;SDS011;23457;51.966;8.230;2023-08-08T01:49:00;4.25;;;3.03;;
37609;SDS011;23457;51.966;8.230;2023-08-08T01:51:26;7.45;;;2.95;;
37609;SDS011;23457;51.966;8.230;2023-08-08T01:53:54;4.35;;;3.38;;
37609;SDS011;23457;51.966;8.230;2023-08-08T01:56:21;5.40;;;3.55;;
37609;SDS011;23457;51.966;8.230;2023-08-08T01:58:48;6.82;;;4.07;;
37609;SDS011;23457;51.966;8.230;2023-08-08T02:01:15;5.50;;;3.75;;
37609;SDS011;23457;51.966;8.230;2023-08-08T02:03:41;5.28;;;3.20;;
37609;SDS011;23457;51.966;8.230;2023-08-08T02:06:10;5.43;;;3.28;;
37609;SDS011;23457;51.966;8.230;2023-08-08T02:08:36;5.05;;;3.13;;
37609;SDS011;23457;51.966;8.230;2023-08-08T02:11:03;4.95;;;3.15;;
37609;SDS011;23457;51.966;8.230;2023-08-08T02:13:30;5.03;;;3.30;;
37609;SDS011;23457;51.966;8.230;2023-08-08T02:15:57;7.20;;;3.08;;
37609;SDS011;23457;51.966;8.230;2023-08-08T02:18:25;4.32;;;2.60;;
37609;SDS011;23457;51.966;8.230;2023-08-08T02:20:52;4.93;;;3.38;;
37609;SDS011;23457;51.966;8.230;2023-08-08T02:23:19;4.25;;;2.70;;
37609;SDS011;23457;51.966;8.230;2023-08-08T02:25:46;4.72;;;2.80;;
37609;SDS011;23457;51.966;8.230;2023-08-08T02:28:13;6.15;;;3.00;;
37609;SDS011;23457;51.966;8.230;2023-08-08T02:30:41;4.47;;;2.75;;
37609;SDS011;23457;51.966;8.230;2023-08-08T02:33:09;4.45;;;2.75;;
37609;SDS011;23457;51.966;8.230;2023-08-08T02:35:37;5.05;;;2.55;;
37609;SDS011;23457;51.966;8.230;2023-08-08T02:38:04;5.43;;;2.42;;
37609;SDS011;23457;51.966;8.230;2023-08-08T02:40:30;5.22;;;2.53;;
37609;SDS011;23457;51.966;8.230;2023-08-08T02:42:58;3.10;;;2.28;;
37609;SDS011;23457;51.966;8.230;2023-08-08T02:45:26;3.63;;;2.47;;
37609;SDS011;23457;51.966;8.230;2023-08-08T02:47:53;5.72;;;2.42;;
37609;SDS011;23457;51.966;8.230;2023-08-08T02:50:20;3.85;;;2.47;;
37609;SDS011;23457;51.966;8.230;2023-08-08T02:52:47;5.90;;;2.53;;
37609;SDS011;23457;51.966;8.230;2023-08-08T02:55:14;5.82;;;2.83;;
37609;SDS011;23457;51.966;8.230;2023-08-08T02:57:44;4.03;;;2.60;;
37609;SDS011;23457;51.966;8.230;2023-08-08T03:00:11;3.92;;;2.33;;
37609;SDS011;23457;51.966;8.230;2023-08-08T03:02:42;4.10;;;2.97;;
37609;SDS011;23457;51.966;8.230;2023-08-08T03:05:11;8.35;;;3.17;;
37609;SDS011;23457;51.966;8.230;2023-08-08T03:07:38;6.88;;;3.60;;
37609;SDS011;23457;51.966;8.230;2023-08-08T03:10:05;5.97;;;3.47;;
37609;SDS011;23457;51.966;8.230;2023-08-08T03:12:33;5.57;;;3.40;;
37609;SDS011;23457;51.966;8.230;2023-08-08T03:15:00;7.82;;;3.83;;
37609;SDS011;23457;51.966;8.230;2023-08-08T03:17:27;6.60;;;3.45;;
37609;SDS011;23457;51.966;8.230;2023-08-08T03:19:54;6.50;;;4.25;;
37609;SDS011;23457;51.966;8.230;2023-08-08T03:22:22;7.22;;;4.15;;
37609;SDS011;23457;51.966;8.230;2023-08-08T03:24:49;9.30;;;5.15;;
37609;SDS011;23457;51.966;8.230;2023-08-08T03:27:15;8.82;;;5.50;;
37609;SDS011;23457;51.966;8.230;2023-08-08T03:29:46;8.82;;;5.85;;
37609;SDS011;23457;51.966;8.230;2023-08-08T03:32:15;8.93;;;5.43;;
37609;SDS011;23457;51.966;8.230;2023-08-08T03:34:42;7.82;;;5.28;;
37609;SDS011;23457;51.966;8.230;2023-08-08T03:37:11;13.20;;;5.60;;
37609;SDS011;23457;51.966;8.230;2023-08-08T03:39:38;11.48;;;6.20;;
37609;SDS011;23457;51.966;8.230;2023-08-08T03:42:05;9.18;;;5.60;;
37609;SDS011;23457;51.966;8.230;2023-08-08T03:44:31;12.35;;;6.18;;
37609;SDS011;23457;51.966;8.230;2023-08-08T03:46:58;9.88;;;5.45;;
37609;SDS011;23457;51.966;8.230;2023-08-08T03:49:43;11.45;;;5.65;;
37609;SDS011;23457;51.966;8.230;2023-08-08T03:52:10;8.75;;;5.93;;
37609;SDS011;23457;51.966;8.230;2023-08-08T03:54:38;11.63;;;5.75;;
37609;SDS011;23457;51.966;8.230;2023-08-08T03:57:04;13.23;;;5.68;;
37609;SDS011;23457;51.966;8.230;2023-08-08T03:59:31;10.60;;;6.05;;
37609;SDS011;23457;51.966;8.230;2023-08-08T04:01:58;9.35;;;5.82;;
37609;SDS011;23457;51.966;8.230;2023-08-08T04:04:25;9.38;;;5.90;;
37609;SDS011;23457;51.966;8.230;2023-08-08T04:06:52;10.68;;;6.00;;
37609;SDS011;23457;51.966;8.230;2023-08-08T04:09:18;9.75;;;5.97;;
37609;SDS011;23457;51.966;8.230;2023-08-08T04:11:45;13.98;;;6.38;;
37609;SDS011;23457;51.966;8.230;2023-08-08T04:14:12;12.25;;;6.97;;
37609;SDS011;23457;51.966;8.230;2023-08-08T04:16:39;11.27;;;6.35;;
37609;SDS011;23457;51.966;8.230;2023-08-08T04:19:06;11.85;;;6.50;;
37609;SDS011;23457;51.966;8.230;2023-08-08T04:21:32;11.00;;;6.65;;
37609;SDS011;23457;51.966;8.230;2023-08-08T04:23:59;15.13;;;6.63;;
37609;SDS011;23457;51.966;8.230;2023-08-08T04:26:26;15.98;;;6.82;;
37609;SDS011;23457;51.966;8.230;2023-08-08T04:28:53;9.82;;;7.00;;
37609;SDS011;23457;51.966;8.230;2023-08-08T04:31:20;11.32;;;6.57;;
37609;SDS011;23457;51.966;8.230;2023-08-08T04:33:46;17.83;;;7.38;;
37609;SDS011;23457;51.966;8.230;2023-08-08T04:36:14;14.88;;;7.20;;
37609;SDS011;23457;51.966;8.230;2023-08-08T04:38:42;12.45;;;6.72;;
37609;SDS011;23457;51.966;8.230;2023-08-08T04:41:08;10.85;;;5.90;;
37609;SDS011;23457;51.966;8.230;2023-08-08T04:43:35;13.80;;;6.63;;
37609;SDS011;23457;51.966;8.230;2023-08-08T04:46:02;11.65;;;6.38;;
37609;SDS011;23457;51.966;8.230;2023-08-08T04:48:28;16.90;;;7.00;;
37609;SDS011;23457;51.966;8.230;2023-08-08T04:50:55;11.52;;;6.43;;
37609;SDS011;23457;51.966;8.230;2023-08-08T04:53:22;10.75;;;5.68;;
37609;SDS011;23457;51.966;8.230;2023-08-08T04:55:49;16.05;;;6.45;;
37609;SDS011;23457;51.966;8.230;2023-08-08T04:58:16;13.52;;;6.25;;
37609;SDS011;23457;51.966;8.230;2023-08-08T05:00:43;12.15;;;6.20;;
37609;SDS011;23457;51.966;8.230;2023-08-08T05:03:09;13.90;;;6.55;;
37609;SDS011;23457;51.966;8.230;2023-08-08T05:05:36;11.15;;;5.90;;
37609;SDS011;23457;51.966;8.230;2023-08-08T05:08:03;11.52;;;5.70;;
37609;SDS011;23457;51.966;8.230;2023-08-08T05:10:30;15.30;;;6.22;;
37609;SDS011;23457;51.966;8.230;2023-08-08T05:12:57;12.73;;;6.40;;
37609;SDS011;23457;51.966;8.230;2023-08-08T05:15:25;10.75;;;5.00;;
37609;SDS011;23457;51.966;8.230;2023-08-08T05:17:52;13.05;;;5.75;;
37609;SDS011;23457;51.966;8.230;2023-08-08T05:20:21;8.18;;;5.38;;
37609;SDS011;23457;51.966;8.230;2023-08-08T05:22:49;16.83;;;6.38;;
37609;SDS011;23457;51.966;8.230;2023-08-08T05:25:16;10.07;;;5.47;;
37609;SDS011;23457;51.966;8.230;2023-08-08T05:27:43;9.15;;;5.78;;
37609;SDS011;23457;51.966;8.230;2023-08-08T05:30:10;16.13;;;5.57;;
37609;SDS011;23457;51.966;8.230;2023-08-08T05:32:37;9.23;;;5.22;;
37609;SDS011;23457;51.966;8.230;2023-08-08T05:35:03;11.52;;;5.85;;
37609;SDS011;23457;51.966;8.230;2023-08-08T05:37:31;13.48;;;6.03;;
37609;SDS011;23457;51.966;8.230;2023-08-08T05:39:57;13.20;;;6.03;;
37609;SDS011;23457;51.966;8.230;2023-08-08T05:42:24;11.95;;;5.82;;
37609;SDS011;23457;51.966;8.230;2023-08-08T05:44:51;9.30;;;5.20;;
37609;SDS011;23457;51.966;8.230;2023-08-08T05:47:18;12.02;;;5.97;;
37609;SDS011;23457;51.966;8.230;2023-08-08T05:49:44;8.90;;;5.50;;
37609;SDS011;23457;51.966;8.230;2023-08-08T05:52:11;11.70;;;5.40;;
37609;SDS011;23457;51.966;8.230;2023-08-08T05:54:38;14.43;;;6.15;;
37609;SDS011;23457;51.966;8.230;2023-08-08T05:57:05;13.77;;;6.00;;
37609;SDS011;23457;51.966;8.230;2023-08-08T05:59:31;7.28;;;5.53;;
37609;SDS011;23457;51.966;8.230;2023-08-08T06:01:58;9.70;;;5.57;;
37609;SDS011;23457;51.966;8.230;2023-08-08T06:04:26;11.65;;;5.55;;
37609;SDS011;23457;51.966;8.230;2023-08-08T06:06:52;16.88;;;6.38;;
37609;SDS011;23457;51.966;8.230;2023-08-08T06:09:19;14.02;;;6.40;;
37609;SDS011;23457;51.966;8.230;2023-08-08T06:11:46;12.50;;;6.57;;
37609;SDS011;23457;51.966;8.230;2023-08-08T06:14:13;13.30;;;7.03;;
37609;SDS011;23457;51.966;8.230;2023-08-08T06:16:40;13.63;;;7.32;;
37609;SDS011;23457;51.966;8.230;2023-08-08T06:19:07;14.48;;;8.30;;
37609;SDS011;23457;51.966;8.230;2023-08-08T06:21:35;18.73;;;8.68;;
37609;SDS011;23457;51.966;8.230;2023-08-08T06:24:02;15.65;;;8.38;;
37609;SDS011;23457;51.966;8.230;2023-08-08T06:26:29;14.88;;;8.70;;
37609;SDS011;23457;51.966;8.230;2023-08-08T06:28:56;18.60;;;9.75;;
37609;SDS011;23457;51.966;8.230;2023-08-08T06:31:23;20.35;;;11.18;;
37609;SDS011;23457;51.966;8.230;2023-08-08T06:33:50;25.75;;;10.80;;
37609;SDS011;23457;51.966;8.230;2023-08-08T06:36:16;18.98;;;10.75;;
37609;SDS011;23457;51.966;8.230;2023-08-08T06:38:43;16.67;;;10.75;;
37609;SDS011;23457;51.966;8.230;2023-08-08T06:41:10;22.02;;;12.00;;
37609;SDS011;23457;51.966;8.230;2023-08-08T06:43:36;19.63;;;12.20;;
37609;SDS011;23457;51.966;8.230;2023-08-08T06:46:03;20.13;;;13.02;;
37609;SDS011;23457;51.966;8.230;2023-08-08T06:48:31;21.45;;;13.05;;
37609;SDS011;23457;51.966;8.230;2023-08-08T06:50:58;23.58;;;13.45;;
37609;SDS011;23457;51.966;8.230;2023-08-08T06:53:24;19.98;;;13.77;;
37609;SDS011;23457;51.966;8.230;2023-08-08T06:55:51;23.90;;;15.52;;
37609;SDS011;23457;51.966;8.230;2023-08-08T06:58:18;24.67;;;14.82;;
37609;SDS011;23457;51.966;8.230;2023-08-08T07:00:44;25.38;;;16.70;;
37609;SDS011;23457;51.966;8.230;2023-08-08T07:03:11;24.85;;;16.45;;
37609;SDS011;23457;51.966;8.230;2023-08-08T07:05:38;23.15;;;15.63;;
37609;SDS011;23457;51.966;8.230;2023-08-08T07:08:06;26.10;;;16.08;;
37609;SDS011;23457;51.966;8.230;2023-08-08T07:10:33;26.80;;;16.80;;
37609;SDS011;23457;51.966;8.230;2023-08-08T07:13:00;21.30;;;16.77;;
37609;SDS011;23457;51.966;8.230;2023-08-08T07:15:26;31.63;;;16.38;;
37609;SDS011;23457;51.966;8.230;2023-08-08T07:17:54;21.20;;;16.55;;
37609;SDS011;23457;51.966;8.230;2023-08-08T07:20:21;27.50;;;17.98;;
37609;SDS011;23457;51.966;8.230;2023-08-08T07:22:49;25.20;;;17.88;;
37609;SDS011;23457;51.966;8.230;2023-08-08T07:25:15;26.85;;;18.27;;
37609;SDS011;23457;51.966;8.230;2023-08-08T07:27:42;31.48;;;17.42;;
37609;SDS011;23457;51.966;8.230;2023-08-08T07:30:09;23.42;;;18.10;;
37609;SDS011;23457;51.966;8.230;2023-08-08T07:32:36;28.95;;;18.15;;
37609;SDS011;23457;51.966;8.230;2023-08-08T07:35:04;27.50;;;17.80;;
37609;SDS011;23457;51.966;8.230;2023-08-08T07:37:32;27.10;;;17.80;;
37609;SDS011;23457;51.966;8.230;2023-08-08T07:39:59;25.50;;;19.10;;
37609;SDS011;23457;51.966;8.230;2023-08-08T07:42:27;25.58;;;19.05;;
37609;SDS011;23457;51.966;8.230;2023-08-08T07:44:54;26.10;;;19.35;;
37609;SDS011;23457;51.966;8.230;2023-08-08T07:47:20;23.83;;;19.33;;
37609;SDS011;23457;51.966;8.230;2023-08-08T07:49:47;27.83;;;19.15;;
37609;SDS011;23457;51.966;8.230;2023-08-08T07:52:14;25.63;;;19.38;;
37609;SDS011;23457;51.966;8.230;2023-08-08T07:54:42;24.73;;;18.77;;
37609;SDS011;23457;51.966;8.230;2023-08-08T07:57:09;27.95;;;19.20;;
37609;SDS011;23457;51.966;8.230;2023-08-08T07:59:37;25.65;;;19.48;;
37609;SDS011;23457;51.966;8.230;2023-08-08T08:02:04;28.15;;;19.17;;
37609;SDS011;23457;51.966;8.230;2023-08-08T08:04:32;32.58;;;19.65;;
37609;SDS011;23457;51.966;8.230;2023-08-08T08:06:59;26.58;;;18.92;;
37609;SDS011;23457;51.966;8.230;2023-08-08T08:09:25;33.08;;;18.30;;
37609;SDS011;23457;51.966;8.230;2023-08-08T08:11:52;23.92;;;17.90;;
37609;SDS011;23457;51.966;8.230;2023-08-08T08:14:19;25.15;;;17.90;;
37609;SDS011;23457;51.966;8.230;2023-08-08T08:16:47;20.42;;;18.15;;
37609;SDS011;23457;51.966;8.230;2023-08-08T08:19:14;24.45;;;17.42;;
37609;SDS011;23457;51.966;8.230;2023-08-08T08:21:41;33.65;;;18.45;;
37609;SDS011;23457;51.966;8.230;2023-08-08T08:24:08;30.95;;;18.27;;
37609;SDS011;23457;51.966;8.230;2023-08-08T08:26:35;23.52;;;17.33;;
37609;SDS011;23457;51.966;8.230;2023-08-08T08:29:01;26.27;;;17.67;;
37609;SDS011;23457;51.966;8.230;2023-08-08T08:31:28;25.50;;;17.50;;
37609;SDS011;23457;51.966;8.230;2023-08-08T08:33:55;25.80;;;17.70;;
37609;SDS011;23457;51.966;8.230;2023-08-08T08:36:22;23.25;;;16.85;;
37609;SDS011;23457;51.966;8.230;2023-08-08T08:38:48;24.85;;;16.75;;
37609;SDS011;23457;51.966;8.230;2023-08-08T08:41:17;25.05;;;17.48;;
37609;SDS011;23457;51.966;8.230;2023-08-08T08:43:46;22.48;;;16.30;;
37609;SDS011;23457;51.966;8.230;2023-08-08T08:48:47;25.90;;;17.15;;
37609;SDS011;23457;51.966;8.230;2023-08-08T08:53:42;21.40;;;14.77;;
37609;SDS011;23457;51.966;8.230;2023-08-08T08:56:13;32.92;;;16.65;;
37609;SDS011;23457;51.966;8.230;2023-08-08T08:58:40;23.88;;;15.15;;
37609;SDS011;23457;51.966;8.230;2023-08-08T09:01:07;23.48;;;14.50;;
37609;SDS011;23457;51.966;8.230;2023-08-08T09:03:35;20.25;;;11.98;;
37609;SDS011;23457;51.966;8.230;2023-08-08T09:06:03;15.27;;;9.60;;
37609;SDS011;23457;51.966;8.230;2023-08-08T09:08:31;19.67;;;8.87;;
37609;SDS011;23457;51.966;8.230;2023-08-08T09:10:58;13.43;;;7.22;;
37609;SDS011;23457;51.966;8.230;2023-08-08T09:13:25;12.73;;;6.75;;
37609;SDS011;23457;51.966;8.230;2023-08-08T09:15:53;11.63;;;6.65;;
37609;SDS011;23457;51.966;8.230;2023-08-08T09:18:22;15.73;;;7.57;;
37609;SDS011;23457;51.966;8.230;2023-08-08T09:23:17;9.30;;;5.53;;
37609;SDS011;23457;51.966;8.230;2023-08-08T09:25:44;8.48;;;5.25;;
37609;SDS011;23457;51.966;8.230;2023-08-08T09:28:12;13.38;;;4.88;;
37609;SDS011;23457;51.966;8.230;2023-08-08T09:30:41;9.25;;;4.18;;
37609;SDS011;23457;51.966;8.230;2023-08-08T09:33:09;10.32;;;4.70;;
37609;SDS011;23457;51.966;8.230;2023-08-08T09:35:37;9.18;;;4.63;;
37609;SDS011;23457;51.966;8.230;2023-08-08T09:40:32;7.78;;;4.03;;
37609;SDS011;23457;51.966;8.230;2023-08-08T09:42:59;6.07;;;3.88;;
37609;SDS011;23457;51.966;8.230;2023-08-08T09:45:25;13.90;;;4.00;;
37609;SDS011;23457;51.966;8.230;2023-08-08T09:47:52;16.77;;;3.90;;
37609;SDS011;23457;51.966;8.230;2023-08-08T09:50:19;11.55;;;3.72;;
37609;SDS011;23457;51.966;8.230;2023-08-08T09:52:47;7.75;;;2.95;;
37609;SDS011;23457;51.966;8.230;2023-08-08T09:55:14;7.55;;;2.50;;
37609;SDS011;23457;51.966;8.230;2023-08-08T09:57:41;5.93;;;2.63;;
37609;SDS011;23457;51.966;8.230;2023-08-08T10:00:09;11.80;;;2.90;;
37609;SDS011;23457;51.966;8.230;2023-08-08T10:02:47;10.60;;;3.03;;
37609;SDS011;23457;51.966;8.230;2023-08-08T10:05:14;5.88;;;2.38;;
37609;SDS011;23457;51.966;8.230;2023-08-08T10:07:42;7.25;;;2.00;;
37609;SDS011;23457;51.966;8.230;2023-08-08T10:10:13;8.02;;;2.47;;
37609;SDS011;23457;51.966;8.230;2023-08-08T10:12:40;6.78;;;2.10;;
37609;SDS011;23457;51.966;8.230;2023-08-08T10:15:08;8.75;;;2.00;;
37609;SDS011;23457;51.966;8.230;2023-08-08T10:17:37;6.68;;;2.00;;
37609;SDS011;23457;51.966;8.230;2023-08-08T10:20:05;5.93;;;1.90;;
37609;SDS011;23457;51.966;8.230;2023-08-08T10:22:42;9.57;;;1.92;;
37609;SDS011;23457;51.966;8.230;2023-08-08T10:28:10;4.60;;;1.77;;
37609;SDS011;23457;51.966;8.230;2023-08-08T10:30:56;6.13;;;1.45;;
37609;SDS011;23457;51.966;8.230;2023-08-08T10:33:28;3.90;;;1.52;;
37609;SDS011;23457;51.966;8.230;2023-08-08T10:36:07;4.93;;;1.63;;
37609;SDS011;23457;51.966;8.230;2023-08-08T10:41:10;7.75;;;1.73;;
37609;SDS011;23457;51.966;8.230;2023-08-08T10:43:38;3.92;;;1.48;;
37609;SDS011;23457;51.966;8.230;2023-08-08T10:46:12;4.32;;;1.70;;
37609;SDS011;23457;51.966;8.230;2023-08-08T10:48:50;7.35;;;1.85;;
37609;SDS011;23457;51.966;8.230;2023-08-08T10:51:18;7.03;;;1.15;;
37609;SDS011;23457;51.966;8.230;2023-08-08T10:53:45;5.35;;;1.42;;
37609;SDS011;23457;51.966;8.230;2023-08-08T10:56:13;4.05;;;1.60;;
37609;SDS011;23457;51.966;8.230;2023-08-08T10:58:42;5.80;;;1.40;;
37609;SDS011;23457;51.966;8.230;2023-08-08T11:01:13;4.63;;;1.20;;
37609;SDS011;23457;51.966;8.230;2023-08-08T11:03:41;3.30;;;1.40;;
37609;SDS011;23457;51.966;8.230;2023-08-08T11:06:08;5.15;;;1.45;;
37609;SDS011;23457;51.966;8.230;2023-08-08T11:08:37;5.65;;;1.70;;
37609;SDS011;23457;51.966;8.230;2023-08-08T11:11:07;2.53;;;1.30;;
37609;SDS011;23457;51.966;8.230;2023-08-08T11:13:33;2.67;;;1.27;;
37609;SDS011;23457;51.966;8.230;2023-08-08T11:16:01;1.98;;;1.10;;
37609;SDS011;23457;51.966;8.230;2023-08-08T11:18:28;5.00;;;1.35;;
37609;SDS011;23457;51.966;8.230;2023-08-08T11:20:55;2.33;;;1.00;;
37609;SDS011;23457;51.966;8.230;2023-08-08T11:23:38;4.38;;;1.13;;
37609;SDS011;23457;51.966;8.230;2023-08-08T11:26:05;2.78;;;1.10;;
37609;SDS011;23457;51.966;8.230;2023-08-08T11:28:34;3.92;;;1.27;;
37609;SDS011;23457;51.966;8.230;2023-08-08T11:31:01;3.72;;;1.17;;
37609;SDS011;23457;51.966;8.230;2023-08-08T11:33:29;5.55;;;1.00;;
37609;SDS011;23457;51.966;8.230;2023-08-08T11:35:55;2.47;;;0.93;;
37609;SDS011;23457;51.966;8.230;2023-08-08T11:38:23;2.78;;;0.80;;
37609;SDS011;23457;51.966;8.230;2023-08-08T11:40:50;2.38;;;1.05;;
37609;SDS011;23457;51.966;8.230;2023-08-08T11:43:18;5.95;;;1.27;;
37609;SDS011;23457;51.966;8.230;2023-08-08T11:45:48;4.53;;;1.10;;
37609;SDS011;23457;51.966;8.230;2023-08-08T11:48:15;3.22;;;0.98;;
37609;SDS011;23457;51.966;8.230;2023-08-08T11:50:42;4.55;;;1.20;;
37609;SDS011;23457;51.966;8.230;2023-08-08T11:53:11;2.00;;;1.20;;
37609;SDS011;23457;51.966;8.230;2023-08-08T11:55:38;4.72;;;1.17;;
37609;SDS011;23457;51.966;8.230;2023-08-08T11:58:05;5.55;;;1.20;;
37609;SDS011;23457;51.966;8.230;2023-08-08T12:00:32;2.22;;;0.93;;
37609;SDS011;23457;51.966;8.230;2023-08-08T12:03:00;2.05;;;0.80;;
37609;SDS011;23457;51.966;8.230;2023-08-08T12:05:57;2.75;;;0.90;;
37609;SDS011;23457;51.966;8.230;2023-08-08T12:08:24;2.78;;;1.00;;
37609;SDS011;23457;51.966;8.230;2023-08-08T12:10:52;3.03;;;0.98;;
37609;SDS011;23457;51.966;8.230;2023-08-08T12:13:21;4.80;;;0.80;;
37609;SDS011;23457;51.966;8.230;2023-08-08T12:15:49;3.95;;;0.90;;
37609;SDS011;23457;51.966;8.230;2023-08-08T12:18:17;2.67;;;0.73;;
37609;SDS011;23457;51.966;8.230;2023-08-08T12:20:44;5.10;;;1.10;;
37609;SDS011;23457;51.966;8.230;2023-08-08T12:23:12;3.15;;;0.98;;
37609;SDS011;23457;51.966;8.230;2023-08-08T12:25:39;3.95;;;0.85;;
37609;SDS011;23457;51.966;8.230;2023-08-08T12:28:09;3.42;;;0.75;;
37609;SDS011;23457;51.966;8.230;2023-08-08T12:30:35;2.33;;;0.82;;
37609;SDS011;23457;51.966;8.230;2023-08-08T12:33:02;3.03;;;0.88;;
37609;SDS011;23457;51.966;8.230;2023-08-08T12:35:30;2.30;;;0.82;;
37609;SDS011;23457;51.966;8.230;2023-08-08T12:37:56;2.72;;;1.00;;
37609;SDS011;23457;51.966;8.230;2023-08-08T12:40:23;3.38;;;1.00;;
37609;SDS011;23457;51.966;8.230;2023-08-08T12:42:52;3.10;;;0.95;;
37609;SDS011;23457;51.966;8.230;2023-08-08T12:45:18;4.32;;;1.13;;
37609;SDS011;23457;51.966;8.230;2023-08-08T12:47:45;3.35;;;0.80;;
37609;SDS011;23457;51.966;8.230;2023-08-08T12:50:12;3.88;;;1.08;;
37609;SDS011;23457;51.966;8.230;2023-08-08T12:52:39;3.20;;;1.00;;
37609;SDS011;23457;51.966;8.230;2023-08-08T12:55:06;3.50;;;0.98;;
37609;SDS011;23457;51.966;8.230;2023-08-08T12:57:33;1.23;;;0.70;;
37609;SDS011;23457;51.966;8.230;2023-08-08T13:00:00;2.35;;;1.17;;
37609;SDS011;23457;51.966;8.230;2023-08-08T13:02:27;4.10;;;0.82;;
37609;SDS011;23457;51.966;8.230;2023-08-08T13:04:54;2.17;;;0.90;;
37609;SDS011;23457;51.966;8.230;2023-08-08T13:07:21;3.97;;;0.70;;
37609;SDS011;23457;51.966;8.230;2023-08-08T13:09:47;3.42;;;0.82;;
37609;SDS011;23457;51.966;8.230;2023-08-08T13:12:14;2.50;;;0.90;;
37609;SDS011;23457;51.966;8.230;2023-08-08T13:14:41;1.77;;;0.75;;
37609;SDS011;23457;51.966;8.230;2023-08-08T13:17:08;1.33;;;0.70;;
37609;SDS011;23457;51.966;8.230;2023-08-08T13:19:35;4.15;;;1.10;;
37609;SDS011;23457;51.966;8.230;2023-08-08T13:22:03;2.30;;;0.80;;
37609;SDS011;23457;51.966;8.230;2023-08-08T13:24:29;1.67;;;0.88;;
37609;SDS011;23457;51.966;8.230;2023-08-08T13:26:56;4.45;;;1.13;;
37609;SDS011;23457;51.966;8.230;2023-08-08T13:29:24;3.38;;;1.13;;
37609;SDS011;23457;51.966;8.230;2023-08-08T13:31:51;2.75;;;1.30;;
37609;SDS011;23457;51.966;8.230;2023-08-08T13:34:18;4.07;;;1.35;;
37609;SDS011;23457;51.966;8.230;2023-08-08T13:36:44;6.03;;;1.50;;
37609;SDS011;23457;51.966;8.230;2023-08-08T13:39:11;3.70;;;1.25;;
37609;SDS011;23457;51.966;8.230;2023-08-08T13:41:38;2.70;;;1.00;;
37609;SDS011;23457;51.966;8.230;2023-08-08T13:44:05;2.70;;;1.25;;
37609;SDS011;23457;51.966;8.230;2023-08-08T13:46:32;2.45;;;1.00;;
37609;SDS011;23457;51.966;8.230;2023-08-08T13:48:59;2.20;;;1.02;;
37609;SDS011;23457;51.966;8.230;2023-08-08T13:51:26;3.75;;;1.02;;
37609;SDS011;23457;51.966;8.230;2023-08-08T13:53:52;2.80;;;1.10;;
37609;SDS011;23457;51.966;8.230;2023-08-08T13:56:36;2.25;;;0.95;;
37609;SDS011;23457;51.966;8.230;2023-08-08T13:59:03;2.75;;;1.10;;
37609;SDS011;23457;51.966;8.230;2023-08-08T14:01:30;3.63;;;1.20;;
37609;SDS011;23457;51.966;8.230;2023-08-08T14:03:57;3.92;;;1.02;;
37609;SDS011;23457;51.966;8.230;2023-08-08T14:06:24;3.03;;;1.33;;
37609;SDS011;23457;51.966;8.230;2023-08-08T14:08:52;5.10;;;1.15;;
37609;SDS011;23457;51.966;8.230;2023-08-08T14:11:19;5.50;;;1.00;;
37609;SDS011;23457;51.966;8.230;2023-08-08T14:13:45;2.15;;;1.00;;
37609;SDS011;23457;51.966;8.230;2023-08-08T14:16:12;2.25;;;0.93;;
37609;SDS011;23457;51.966;8.230;2023-08-08T14:18:39;2.20;;;1.05;;
37609;SDS011;23457;51.966;8.230;2023-08-08T14:21:05;2.55;;;0.90;;
37609;SDS011;23457;51.966;8.230;2023-08-08T14:23:32;2.63;;;1.25;;
37609;SDS011;23457;51.966;8.230;2023-08-08T14:25:59;3.90;;;1.10;;
37609;SDS011;23457;51.966;8.230;2023-08-08T14:28:26;5.22;;;1.05;;
37609;SDS011;23457;51.966;8.230;2023-08-08T14:30:54;4.97;;;0.90;;
37609;SDS011;23457;51.966;8.230;2023-08-08T14:33:21;0.95;;;0.65;;
37609;SDS011;23457;51.966;8.230;2023-08-08T14:35:48;1.95;;;0.60;;
37609;SDS011;23457;51.966;8.230;2023-08-08T14:38:15;1.58;;;0.80;;
37609;SDS011;23457;51.966;8.230;2023-08-08T14:40:42;1.45;;;1.10;;
37609;SDS011;23457;51.966;8.230;2023-08-08T14:43:09;2.22;;;0.80;;
37609;SDS011;23457;51.966;8.230;2023-08-08T14:45:38;2.75;;;0.70;;
37609;SDS011;23457;51.966;8.230;2023-08-08T14:48:05;1.83;;;0.70;;
37609;SDS011;23457;51.966;8.230;2023-08-08T14:50:33;4.38;;;1.00;;
37609;SDS011;23457;51.966;8.230;2023-08-08T14:53:00;3.70;;;0.80;;
37609;SDS011;23457;51.966;8.230;2023-08-08T14:55:26;2.65;;;0.93;;
37609;SDS011;23457;51.966;8.230;2023-08-08T14:57:54;2.95;;;1.08;;
37609;SDS011;23457;51.966;8.230;2023-08-08T15:00:20;5.07;;;1.08;;